Aviation Digital Data Service (ADDS)

Output produced by METARs form (2353 UTC 16 October 2017)
found at http://www.aviationweather.gov/adds/metars/
 
KIAD 162320Z 1700/1806 33008KT P6SM SKC 
     FM170600 34004KT P6SM SKC